createdAt,value
2023-04-09T06:43:15.604Z,76.66
2023-04-09T06:43:26.881Z,76.56
2023-04-09T06:43:36.803Z,76.56
2023-04-09T06:43:46.892Z,76.25
2023-04-09T06:43:56.915Z,76.35
2023-04-09T06:44:07.073Z,76.25
2023-04-09T06:44:17.110Z,76.56
2023-04-09T06:44:27.201Z,77.14
2023-04-09T06:44:37.504Z,77.64
2023-04-09T06:44:47.498Z,77.55
2023-04-09T06:44:57.630Z,77.24
2023-04-09T06:45:07.891Z,77.03
2023-04-09T06:45:17.830Z,77.00
2023-04-09T06:45:27.945Z,76.59
2023-04-09T06:45:40.411Z,76.18
2023-04-09T06:45:48.309Z,76.08
2023-04-09T06:45:58.372Z,75.67
2023-04-09T06:46:08.502Z,75.67
2023-04-09T06:46:18.712Z,75.64
2023-04-09T06:46:28.760Z,75.64
2023-04-09T06:46:38.938Z,75.74
2023-04-09T06:46:49.156Z,75.54
2023-04-09T06:46:59.143Z,75.23
2023-04-09T06:47:09.241Z,75.02
2023-04-09T06:47:19.269Z,74.82
2023-04-09T06:47:29.555Z,74.28
2023-04-09T06:47:39.684Z,74.48
2023-04-09T06:47:49.762Z,74.58
2023-04-09T06:47:59.885Z,74.48
2023-04-09T06:48:09.927Z,74.08
2023-04-09T06:48:20.166Z,73.97
2023-04-09T06:48:30.237Z,73.87
2023-04-09T06:48:40.383Z,73.77
2023-04-09T06:48:50.429Z,73.63
2023-04-09T06:49:00.623Z,73.43
2023-04-09T06:49:10.691Z,73.43
2023-04-09T06:49:20.868Z,73.74
2023-04-09T06:49:30.988Z,73.94
2023-04-09T06:49:41.176Z,73.84
2023-04-09T06:49:51.209Z,73.84
2023-04-09T06:50:01.337Z,73.91
2023-04-09T06:50:11.467Z,73.70
2023-04-09T06:50:21.674Z,73.30
2023-04-09T06:50:31.704Z,73.50
2023-04-09T06:50:41.998Z,73.70
2023-04-09T06:50:52.046Z,73.50
2023-04-09T06:51:02.202Z,73.30
2023-04-09T06:51:12.317Z,72.99
2023-04-09T06:51:22.471Z,72.78
2023-04-09T06:51:32.507Z,72.69
2023-04-09T06:51:42.719Z,72.08
2023-04-09T06:51:52.899Z,71.43
2023-04-09T06:52:03.064Z,71.26
2023-04-09T06:52:13.069Z,71.16
2023-04-09T06:52:23.288Z,71.33
2023-04-09T06:52:33.440Z,71.12
2023-04-09T06:52:43.515Z,71.12
2023-04-09T06:52:53.674Z,71.03
2023-04-09T06:53:04.527Z,70.92
2023-04-09T06:53:13.921Z,71.03
2023-04-09T06:53:24.072Z,70.62
2023-04-09T06:53:34.220Z,70.11
2023-04-09T06:53:44.377Z,70.11
2023-04-09T06:53:54.709Z,70.42
2023-04-09T06:54:04.638Z,70.82
2023-04-09T06:54:14.868Z,71.12
2023-04-09T06:54:24.952Z,71.03
2023-04-09T06:54:34.924Z,70.82
2023-04-09T06:54:45.221Z,70.52
2023-04-09T06:54:55.382Z,70.82
2023-04-09T06:55:05.475Z,71.23
2023-04-09T06:55:15.513Z,71.33
2023-04-09T06:55:25.674Z,70.92
2023-04-09T06:55:36.449Z,70.82
2023-04-09T06:55:45.952Z,70.92
2023-04-09T06:55:57.005Z,70.82
2023-04-09T06:56:06.130Z,71.03
2023-04-09T06:56:16.231Z,71.50
2023-04-09T06:56:26.392Z,71.64
2023-04-09T06:56:46.721Z,71.09
2023-04-09T06:56:56.816Z,71.09
2023-04-09T06:57:06.971Z,71.60
2023-04-09T06:57:16.976Z,71.60
2023-04-09T06:57:27.167Z,70.99
2023-04-09T06:57:37.278Z,70.18
2023-04-09T06:57:47.609Z,69.87
2023-04-09T06:57:57.664Z,69.98
2023-04-09T06:58:07.857Z,70.18
2023-04-09T06:58:17.739Z,70.38
2023-04-09T06:58:27.970Z,70.38
2023-04-09T06:58:38.092Z,70.48
2023-04-09T06:58:48.219Z,70.65
2023-04-09T06:58:58.501Z,70.65
2023-04-09T06:59:08.516Z,70.55
2023-04-09T06:59:18.640Z,70.25
2023-04-09T06:59:28.908Z,70.25
2023-04-09T06:59:38.874Z,69.95
2023-04-09T06:59:49.051Z,70.15
2023-04-09T06:59:59.284Z,70.15
2023-04-09T07:00:09.372Z,70.15
2023-04-09T07:00:19.423Z,70.04
2023-04-09T07:00:29.590Z,70.15
2023-04-09T07:00:39.710Z,70.55
2023-04-09T07:00:49.805Z,70.55
2023-04-09T07:00:59.929Z,70.35
2023-04-09T07:01:10.170Z,70.35
2023-04-09T07:01:21.145Z,70.65
2023-04-09T07:01:30.530Z,70.76
2023-04-09T07:01:40.649Z,70.76
2023-04-09T07:01:51.386Z,70.86
2023-04-09T07:02:00.576Z,71.16
2023-04-09T07:02:10.702Z,71.16
2023-04-09T07:02:31.022Z,71.36
2023-04-09T07:02:40.959Z,71.77
2023-04-09T07:02:51.145Z,72.08
2023-04-09T07:03:01.257Z,72.58
2023-04-09T07:03:11.404Z,72.78
2023-04-09T07:03:21.430Z,72.48
2023-04-09T07:03:31.957Z,72.17
2023-04-09T07:03:41.715Z,72.38
2023-04-09T07:03:52.032Z,72.28
2023-04-09T07:04:02.484Z,72.17
2023-04-09T07:04:12.114Z,72.17
2023-04-09T07:04:22.122Z,72.69
2023-04-09T07:04:32.403Z,72.17
2023-04-09T07:04:42.420Z,71.77
2023-04-09T07:04:52.582Z,71.67
2023-04-09T07:05:02.582Z,71.57
2023-04-09T07:05:12.994Z,71.57
2023-04-09T07:05:22.867Z,71.77
2023-04-09T07:05:33.048Z,71.47
2023-04-09T07:05:43.156Z,71.67
2023-04-09T07:05:53.851Z,71.91
2023-04-09T07:06:04.270Z,72.41
2023-04-09T07:06:13.515Z,72.62
2023-04-09T07:06:23.609Z,73.22
2023-04-09T07:06:33.822Z,73.63
2023-04-09T07:06:43.857Z,73.63
2023-04-09T07:06:54.027Z,73.63
2023-04-09T07:07:14.238Z,73.94
2023-04-09T07:07:25.625Z,73.83
2023-04-09T07:07:34.536Z,73.53
2023-04-09T07:07:44.564Z,73.33
2023-04-09T07:07:54.640Z,73.02
2023-04-09T07:08:05.133Z,73.33
2023-04-09T07:08:14.957Z,73.13
2023-04-09T07:08:25.070Z,73.02
2023-04-09T07:08:35.276Z,73.13
2023-04-09T07:08:45.290Z,73.22
2023-04-09T07:08:55.647Z,73.53
2023-04-09T07:09:05.502Z,73.53
2023-04-09T07:09:15.635Z,73.53
2023-04-09T07:09:25.717Z,73.33
2023-04-09T07:09:35.888Z,73.22
2023-04-09T07:09:46.127Z,73.13
2023-04-09T07:09:56.331Z,72.82
2023-04-09T07:10:06.339Z,72.52
2023-04-09T07:10:16.414Z,72.01
2023-04-09T07:10:26.617Z,71.60
2023-04-09T07:10:36.780Z,71.60
2023-04-09T07:10:46.889Z,71.50
2023-04-09T07:10:57.041Z,71.70
2023-04-09T07:11:07.243Z,72.21
2023-04-09T07:11:17.224Z,72.92
2023-04-09T07:11:27.455Z,72.41
2023-04-09T07:11:37.512Z,72.11
2023-04-09T07:11:47.665Z,72.21
2023-04-09T07:11:57.858Z,72.11
2023-04-09T07:12:07.913Z,71.80
2023-04-09T07:12:18.045Z,71.80
2023-04-09T07:12:28.155Z,71.88
2023-04-09T07:16:57.171Z,71.97
2023-04-09T07:17:08.210Z,72.38
2023-04-09T07:17:18.029Z,72.65
2023-04-09T07:17:28.375Z,71.73
2023-04-09T07:17:38.445Z,70.32
2023-04-09T07:17:48.722Z,69.71
2023-04-09T07:17:58.636Z,69.41
2023-04-09T07:18:09.308Z,68.49
2023-04-09T07:18:19.054Z,67.79
2023-04-09T07:18:29.207Z,67.48
2023-04-09T07:18:39.276Z,67.48
2023-04-09T07:18:49.364Z,67.58
2023-04-09T07:18:59.595Z,67.45
2023-04-09T07:19:09.959Z,67.45
2023-04-09T07:19:19.749Z,67.35
2023-04-09T07:19:29.850Z,67.35
2023-04-09T07:19:39.987Z,67.35
2023-04-09T07:19:50.087Z,67.45
2023-04-09T07:20:00.176Z,67.14
2023-04-09T07:20:10.431Z,67.05
2023-04-09T07:20:20.591Z,66.94
2023-04-09T07:20:30.725Z,66.94
2023-04-09T07:20:40.746Z,67.14
2023-04-09T07:20:50.924Z,67.05
2023-04-09T07:21:00.984Z,67.14
2023-04-09T07:21:11.131Z,67.14
2023-04-09T07:21:21.316Z,67.35
2023-04-09T07:21:31.510Z,67.45
2023-04-09T07:21:41.481Z,67.25
2023-04-09T07:21:51.623Z,66.44
2023-04-09T07:22:01.755Z,66.10
2023-04-09T07:22:11.935Z,66.10
2023-04-09T07:22:22.080Z,65.90
2023-04-09T07:22:32.270Z,65.80
2023-04-09T07:22:42.349Z,65.50
2023-04-09T07:22:52.504Z,65.59
2023-04-09T07:23:02.512Z,65.90
2023-04-09T07:23:12.756Z,66.20
2023-04-09T07:23:22.853Z,66.30
2023-04-09T07:23:32.921Z,66.41
2023-04-09T07:23:43.082Z,66.20
2023-04-09T07:23:53.412Z,66.10
2023-04-09T07:24:03.221Z,66.00
2023-04-09T07:24:13.361Z,65.80
2023-04-09T07:24:23.482Z,65.90
2023-04-09T07:24:33.622Z,65.80
2023-04-09T07:24:43.748Z,65.50
2023-04-09T07:24:54.063Z,65.19
2023-04-09T07:25:03.950Z,65.19
2023-04-09T07:25:14.154Z,65.29
2023-04-09T07:25:24.841Z,65.59
2023-04-09T07:25:34.416Z,65.80
2023-04-09T07:25:44.581Z,65.90
2023-04-09T07:25:55.284Z,65.70
2023-04-09T07:26:04.823Z,65.70
2023-04-09T07:26:14.864Z,65.83
2023-04-09T07:26:25.004Z,66.03
2023-04-09T07:26:35.193Z,66.33
2023-04-09T07:26:45.353Z,66.54
2023-04-09T07:26:55.577Z,66.57
2023-04-09T07:27:05.615Z,66.67
2023-04-09T07:27:15.640Z,66.88
2023-04-09T07:27:25.843Z,67.18
2023-04-09T07:27:35.899Z,67.38
2023-04-09T07:27:46.046Z,67.41
2023-04-09T07:27:56.268Z,67.21
2023-04-09T07:28:06.298Z,67.51
2023-04-09T07:28:16.497Z,67.72
2023-04-09T07:28:26.687Z,67.75
2023-04-09T07:28:36.754Z,67.75
2023-04-09T07:28:46.859Z,67.95
2023-04-09T07:28:57.055Z,67.98
2023-04-09T07:29:07.195Z,68.39
2023-04-09T07:29:17.200Z,68.49
2023-04-09T07:29:27.314Z,68.93
2023-04-09T07:29:37.589Z,69.23
2023-04-09T07:29:47.585Z,69.54
2023-04-09T07:29:57.767Z,69.95
2023-04-09T07:30:07.925Z,70.25
2023-04-09T07:30:17.970Z,70.35
2023-04-09T07:30:28.113Z,70.28
2023-04-09T07:30:38.244Z,70.79
2023-04-09T07:30:49.338Z,71.36
2023-04-09T07:30:58.427Z,70.99
2023-04-09T07:31:08.617Z,70.18
2023-04-09T07:31:18.786Z,69.57
2023-04-09T07:31:28.933Z,69.26
2023-04-09T07:31:39.188Z,69.37
2023-04-09T07:31:59.462Z,69.67
2023-04-09T07:32:09.467Z,69.78
2023-04-09T07:32:19.594Z,69.98
2023-04-09T07:32:29.799Z,69.87
2023-04-09T07:32:39.878Z,69.67
2023-04-09T07:32:50.000Z,69.67
2023-04-09T07:33:00.333Z,69.57
2023-04-09T07:33:10.163Z,69.37
2023-04-09T07:33:20.295Z,69.17
2023-04-09T07:33:30.439Z,69.37
2023-04-09T07:33:40.548Z,69.47
2023-04-09T07:33:50.786Z,69.26
2023-04-09T07:34:00.776Z,69.37
2023-04-09T07:34:10.804Z,69.17
2023-04-09T07:34:21.007Z,68.45
2023-04-09T07:34:31.086Z,68.05
2023-04-09T07:34:41.252Z,67.94
2023-04-09T07:34:51.346Z,67.03
2023-04-09T07:35:01.557Z,66.22
2023-04-09T07:35:11.695Z,66.32
2023-04-09T07:35:21.783Z,66.93
2023-04-09T07:35:31.781Z,67.33
2023-04-09T07:35:42.087Z,67.54
2023-04-09T07:35:52.915Z,67.44
2023-04-09T07:36:02.264Z,68.15
2023-04-09T07:36:12.349Z,68.86
2023-04-09T07:36:22.350Z,68.35
2023-04-09T07:36:32.581Z,67.33
2023-04-09T07:36:42.737Z,67.13
2023-04-09T07:36:52.606Z,66.83
2023-04-09T07:37:02.818Z,66.63
2023-04-09T07:37:12.946Z,66.52
2023-04-09T07:37:23.125Z,66.80
2023-04-09T07:37:33.128Z,67.00
2023-04-09T07:37:43.234Z,66.80
2023-04-09T07:37:53.251Z,66.90
2023-04-09T07:38:03.475Z,66.69
2023-04-09T07:38:13.540Z,66.80
2023-04-09T07:38:23.768Z,66.90
2023-04-09T07:38:33.878Z,66.39
2023-04-09T07:38:44.074Z,65.58
2023-04-09T07:38:54.253Z,64.84
2023-04-09T07:39:04.265Z,64.67
2023-04-09T07:39:14.260Z,64.46
2023-04-09T07:39:24.426Z,64.56
2023-04-09T07:39:34.493Z,64.73
2023-04-09T07:39:44.724Z,64.67
2023-04-09T07:39:54.845Z,64.73
2023-04-09T07:40:04.944Z,64.73
2023-04-09T07:40:15.102Z,64.64
2023-04-09T07:40:25.208Z,64.23
2023-04-09T07:40:35.355Z,64.33
2023-04-09T07:40:45.406Z,64.64
2023-04-09T07:40:55.484Z,64.84
2023-04-09T07:41:05.723Z,64.94
2023-04-09T07:41:16.762Z,64.84
2023-04-09T07:41:25.949Z,64.73
2023-04-09T07:41:36.004Z,64.73
2023-04-09T07:41:46.287Z,64.73
2023-04-09T07:41:56.443Z,64.73
2023-04-09T07:42:06.476Z,65.14
2023-04-09T07:42:26.741Z,65.34
2023-04-09T07:42:36.873Z,65.55
2023-04-09T07:42:47.066Z,65.62
2023-04-09T07:42:57.180Z,65.62
2023-04-09T07:43:07.503Z,65.31
2023-04-09T07:43:17.367Z,64.81
2023-04-09T07:43:27.476Z,64.50
2023-04-09T07:43:37.607Z,64.50
2023-04-09T07:43:47.831Z,64.61
2023-04-09T07:43:57.984Z,64.70
2023-04-09T07:44:08.195Z,64.61
2023-04-09T07:44:19.707Z,64.64
2023-04-09T07:44:28.404Z,65.04
2023-04-09T07:44:38.398Z,65.14
2023-04-09T07:44:48.539Z,65.24
2023-04-09T07:44:58.660Z,65.34
2023-04-09T07:45:08.910Z,65.55
2023-04-09T07:45:29.030Z,65.65
2023-04-09T07:45:39.071Z,65.45
2023-04-09T07:45:49.279Z,65.42
2023-04-09T07:46:00.220Z,65.34
2023-04-09T07:46:09.547Z,65.55
2023-04-09T07:46:19.728Z,65.65
2023-04-09T07:46:29.847Z,65.62
2023-04-09T07:46:39.904Z,65.52
2023-04-09T07:46:50.175Z,65.52
2023-04-09T07:47:10.234Z,66.33
2023-04-09T07:47:20.822Z,67.03
2023-04-09T07:47:30.544Z,67.24
2023-04-09T07:47:40.693Z,67.44
2023-04-09T07:47:50.774Z,67.44
2023-04-09T07:48:00.903Z,67.78
2023-04-09T07:48:10.904Z,68.08
2023-04-09T07:48:21.151Z,68.39
2023-04-09T07:48:31.254Z,68.79
2023-04-09T07:48:41.238Z,69.10
2023-04-09T07:48:51.696Z,69.30
2023-04-09T07:49:01.465Z,69.37
2023-04-09T07:49:11.597Z,69.47
2023-04-09T07:49:21.674Z,69.27
2023-04-09T07:49:31.810Z,68.96
2023-04-09T07:49:42.016Z,68.87
2023-04-09T07:49:52.036Z,68.90
2023-04-09T07:50:02.347Z,68.87
2023-04-09T07:50:12.298Z,69.07
2023-04-09T07:50:22.561Z,69.07
2023-04-09T07:50:32.600Z,69.07
2023-04-09T07:50:42.673Z,68.87
2023-04-09T07:50:52.849Z,69.07
2023-04-09T07:51:03.074Z,69.07
2023-04-09T07:51:13.173Z,69.07
2023-04-09T07:51:23.297Z,69.37
2023-04-09T07:51:33.367Z,69.47
2023-04-09T07:51:43.573Z,69.68
2023-04-09T07:51:53.608Z,69.98
2023-04-09T07:52:03.804Z,70.48
2023-04-09T07:52:13.776Z,70.56
2023-04-09T07:52:24.080Z,69.64
2023-04-09T07:52:34.074Z,68.93
2023-04-09T07:52:44.337Z,68.63
2023-04-09T07:52:54.335Z,68.52
2023-04-09T07:53:04.439Z,68.43
2023-04-09T07:53:14.525Z,68.43
2023-04-09T07:53:24.865Z,68.73
2023-04-09T07:53:34.915Z,68.63
2023-04-09T07:53:45.122Z,68.52
